Southend, Canada
Current Conditions -  °F | °C
As of 9:04 AM on Saturday 20 Dec 2014 (Local Time) from CYYL Reporting Station
Light Snow Light Snow  
Wind Chill:   Ceiling: 300
Heat Index: 12°   Visibility: 5mi
Dew Point: 10°   Wind: 9mph
Humidity: 92%   Direction: 170°S
Pressure: 29.87"   Gusts: NA
Location:  56.33°N, 103.24°W
Report Text: CYYL 201504Z AUTO 17008KT 5SM -SN OVC003 M11/M12 A2987 RMK SLP145
Loading
Personal Weather Stations






























Interactive Weather Map New forecast layout! Learn more

10-Day Weather Forecast

Advertisements
Track Severe Weather on mobile